createdAt,value
2019-03-11T00:00:05.534Z,6.60
2019-03-11T00:01:05.508Z,6.50
2019-03-11T00:02:05.503Z,6.20
2019-03-11T00:03:05.517Z,5.40
2019-03-11T00:04:06.166Z,6.40
2019-03-11T00:05:05.458Z,6.30
2019-03-11T00:06:05.458Z,6.10
2019-03-11T00:07:05.446Z,6.40
2019-03-11T00:08:05.456Z,5.40
2019-03-11T00:09:05.423Z,5.70
2019-03-11T00:10:05.407Z,4.80
2019-03-11T00:11:05.405Z,5.70
2019-03-11T00:12:05.449Z,5.50
2019-03-11T00:13:05.397Z,5.90
2019-03-11T00:14:05.354Z,5.60
2019-03-11T00:15:05.353Z,5.30
2019-03-11T00:16:05.338Z,5.40
2019-03-11T00:17:05.360Z,5.50
2019-03-11T00:18:05.338Z,5.50
2019-03-11T00:19:05.311Z,5.70
2019-03-11T00:20:05.307Z,5.90
2019-03-11T00:21:05.289Z,5.30
2019-03-11T00:22:05.268Z,5.90
2019-03-11T00:23:05.281Z,5.90
2019-03-11T00:24:05.257Z,6.10
2019-03-11T00:25:05.260Z,5.70
2019-03-11T00:26:05.229Z,5.00
2019-03-11T00:27:05.214Z,5.40
2019-03-11T00:28:05.227Z,6.10
2019-03-11T00:29:05.200Z,5.40
2019-03-11T00:30:05.199Z,5.70
2019-03-11T00:31:05.171Z,5.80
2019-03-11T00:32:05.171Z,6.00
2019-03-11T00:33:05.169Z,5.30
2019-03-11T00:34:05.148Z,5.90
2019-03-11T00:35:05.127Z,6.10
2019-03-11T00:36:05.121Z,6.10
2019-03-11T00:37:05.117Z,6.50
2019-03-11T00:38:05.153Z,6.00
2019-03-11T00:39:05.087Z,5.70
2019-03-11T00:40:05.078Z,5.70
2019-03-11T00:41:05.073Z,5.90
2019-03-11T00:42:05.061Z,5.20
2019-03-11T00:43:05.052Z,6.00
2019-03-11T00:44:05.030Z,6.10
2019-03-11T00:45:05.020Z,5.50
2019-03-11T00:46:05.027Z,6.00
2019-03-11T00:47:04.999Z,5.80
2019-03-11T00:48:05.020Z,5.30
2019-03-11T00:49:04.968Z,5.90
2019-03-11T00:50:04.976Z,5.90
2019-03-11T00:51:04.954Z,5.90
2019-03-11T00:52:04.944Z,6.20
2019-03-11T00:53:04.924Z,6.50
2019-03-11T00:54:04.928Z,5.60
2019-03-11T00:55:04.903Z,5.90
2019-03-11T00:56:04.898Z,5.50
2019-03-11T00:57:04.883Z,5.90
2019-03-11T00:58:04.876Z,6.50
2019-03-11T00:59:04.882Z,6.10
2019-03-11T01:00:04.851Z,6.20
2019-03-11T01:01:04.844Z,5.90
2019-03-11T01:02:04.841Z,6.30
2019-03-11T01:03:04.830Z,6.20
2019-03-11T01:04:04.828Z,6.40
2019-03-11T01:05:04.799Z,6.10
2019-03-11T01:06:04.787Z,6.70
2019-03-11T01:07:04.777Z,6.90
2019-03-11T01:08:04.777Z,6.90
2019-03-11T01:09:04.789Z,6.20
2019-03-11T01:10:04.741Z,6.70
2019-03-11T01:11:04.735Z,6.50
2019-03-11T01:12:04.717Z,5.70
2019-03-11T01:13:04.718Z,6.70
2019-03-11T01:14:04.715Z,6.70
2019-03-11T01:15:04.693Z,6.80
2019-03-11T01:16:04.663Z,6.90
2019-03-11T01:17:04.671Z,7.00
2019-03-11T01:18:04.655Z,6.90
2019-03-11T01:19:04.665Z,6.40
2019-03-11T01:20:04.643Z,6.70
2019-03-11T01:21:04.628Z,6.60
2019-03-11T01:22:04.600Z,7.30
2019-03-11T01:23:04.593Z,7.30
2019-03-11T01:24:04.601Z,7.10
2019-03-11T01:25:05.074Z,7.40
2019-03-11T01:26:04.561Z,7.40
2019-03-11T01:27:04.566Z,7.40
2019-03-11T01:28:04.537Z,7.20
2019-03-11T01:29:04.553Z,7.70
2019-03-11T01:30:04.514Z,7.90
2019-03-11T01:31:04.539Z,7.50
2019-03-11T01:32:04.490Z,7.10
2019-03-11T01:33:04.481Z,7.60
2019-03-11T01:34:04.487Z,7.60
2019-03-11T01:35:04.464Z,7.40
2019-03-11T01:36:04.461Z,7.80
2019-03-11T01:37:04.446Z,6.80
2019-03-11T01:38:04.428Z,7.90
2019-03-11T01:39:04.431Z,6.70
2019-03-11T01:40:04.402Z,6.80
2019-03-11T01:41:04.403Z,6.80
2019-03-11T01:42:04.386Z,6.80
2019-03-11T01:43:04.401Z,7.80
2019-03-11T01:44:04.378Z,7.00
2019-03-11T01:45:04.347Z,6.80
2019-03-11T01:46:04.351Z,6.90
2019-03-11T01:47:04.339Z,7.20
2019-03-11T01:48:04.330Z,6.80
2019-03-11T01:49:04.321Z,7.00
2019-03-11T01:50:04.302Z,7.20
2019-03-11T01:51:04.286Z,7.30
2019-03-11T01:52:04.293Z,7.30
2019-03-11T01:53:04.277Z,7.00
2019-03-11T01:54:04.269Z,7.20
2019-03-11T01:55:04.301Z,7.70
2019-03-11T01:56:04.226Z,7.70
2019-03-11T01:57:04.223Z,8.00
2019-03-11T01:58:04.215Z,6.80
2019-03-11T01:59:04.208Z,7.50
2019-03-11T02:00:04.194Z,7.80
2019-03-11T02:01:04.176Z,7.70
2019-03-11T02:02:04.169Z,7.80
2019-03-11T02:03:04.168Z,7.70
2019-03-11T02:04:04.162Z,7.40
2019-03-11T02:05:04.136Z,7.10
2019-03-11T02:06:04.121Z,7.30
2019-03-11T02:07:04.101Z,7.80
2019-03-11T02:08:04.104Z,7.90
2019-03-11T02:09:04.114Z,7.90
2019-03-11T02:10:04.080Z,7.60
2019-03-11T02:11:04.061Z,7.50
2019-03-11T02:12:04.050Z,7.50
2019-03-11T02:13:04.038Z,7.70
2019-03-11T02:14:04.048Z,8.20
2019-03-11T02:15:04.014Z,7.70
2019-03-11T02:16:04.013Z,8.30
2019-03-11T02:17:04.019Z,8.10
2019-03-11T02:18:03.988Z,7.80
2019-03-11T02:19:03.994Z,7.70
2019-03-11T02:20:03.958Z,8.00
2019-03-11T02:21:03.949Z,7.60
2019-03-11T02:22:03.931Z,7.40
2019-03-11T02:23:03.927Z,7.10
2019-03-11T02:24:03.935Z,6.80
2019-03-11T02:25:03.915Z,6.60
2019-03-11T02:26:03.894Z,6.40
2019-03-11T02:27:03.879Z,6.70
2019-03-11T02:28:03.871Z,6.50
2019-03-11T02:29:03.881Z,6.20
2019-03-11T02:30:03.865Z,6.50
2019-03-11T02:31:03.848Z,6.70
2019-03-11T02:32:03.845Z,5.90
2019-03-11T02:33:03.821Z,5.80
2019-03-11T02:34:03.839Z,5.60
2019-03-11T02:35:03.854Z,5.60
2019-03-11T02:36:03.852Z,5.80
2019-03-11T02:37:03.821Z,4.60
2019-03-11T02:38:03.920Z,4.40
2019-03-11T02:39:03.847Z,4.40
2019-03-11T02:40:03.857Z,4.30
2019-03-11T02:41:03.747Z,4.30
2019-03-11T02:42:03.729Z,3.50
2019-03-11T02:43:03.787Z,3.70
2019-03-11T02:44:03.706Z,4.10
2019-03-11T02:45:03.754Z,4.20
2019-03-11T02:46:03.670Z,3.90
2019-03-11T02:47:03.677Z,4.40
2019-03-11T02:48:03.651Z,4.20
2019-03-11T02:49:03.645Z,4.10
2019-03-11T02:50:03.656Z,3.70
2019-03-11T02:51:03.614Z,3.10
2019-03-11T02:52:03.609Z,3.20
2019-03-11T02:53:03.595Z,3.10
2019-03-11T02:54:03.579Z,3.00
2019-03-11T02:55:03.606Z,2.90
2019-03-11T02:56:03.565Z,2.80
2019-03-11T02:57:03.633Z,3.20
2019-03-11T02:58:03.539Z,3.00
2019-03-11T02:59:03.541Z,3.00
2019-03-11T03:00:03.533Z,2.70
2019-03-11T03:01:03.519Z,3.00
2019-03-11T03:02:03.487Z,2.40
2019-03-11T03:03:03.501Z,2.60
2019-03-11T03:04:03.468Z,2.60
2019-03-11T03:05:03.500Z,2.70
2019-03-11T03:06:03.449Z,2.50
2019-03-11T03:07:03.438Z,2.90
2019-03-11T03:08:03.448Z,2.70
2019-03-11T03:09:03.432Z,3.30
2019-03-11T03:10:03.442Z,3.10
2019-03-11T03:11:03.400Z,3.00
2019-03-11T03:12:03.389Z,3.00
2019-03-11T03:13:03.382Z,3.00
2019-03-11T03:14:03.349Z,3.10
2019-03-11T03:15:03.352Z,3.00
2019-03-11T03:16:03.352Z,3.20
2019-03-11T03:17:03.333Z,2.60
2019-03-11T03:18:03.343Z,3.10
2019-03-11T03:19:03.309Z,2.90
2019-03-11T03:20:03.302Z,3.00
2019-03-11T03:21:03.307Z,3.20
2019-03-11T03:22:03.285Z,3.10
2019-03-11T03:23:03.264Z,3.20
2019-03-11T03:24:03.241Z,2.90
2019-03-11T03:25:03.240Z,2.80
2019-03-11T03:26:03.254Z,3.30
2019-03-11T03:27:03.221Z,3.20
2019-03-11T03:28:03.491Z,3.40
2019-03-11T03:29:03.204Z,3.30
2019-03-11T03:30:03.182Z,3.60
2019-03-11T03:31:03.189Z,3.40
2019-03-11T03:32:03.159Z,3.30
2019-03-11T03:33:03.175Z,3.20
2019-03-11T03:34:03.137Z,3.00
2019-03-11T03:35:03.134Z,3.00
2019-03-11T03:36:03.173Z,3.50
2019-03-11T03:37:03.109Z,3.00
2019-03-11T03:38:03.108Z,3.50
2019-03-11T03:39:03.088Z,3.50
2019-03-11T03:40:03.082Z,3.10
2019-03-11T03:41:03.099Z,3.70
2019-03-11T03:42:03.041Z,3.90
2019-03-11T03:43:03.090Z,3.60
2019-03-11T03:44:03.031Z,4.10
2019-03-11T03:45:03.022Z,4.00
2019-03-11T03:46:17.391Z,3.60
2019-03-11T03:47:03.987Z,3.60
2019-03-11T03:48:02.977Z,3.80
2019-03-11T03:49:02.979Z,3.80
2019-03-11T03:50:02.974Z,3.80
2019-03-11T03:51:02.946Z,3.90
2019-03-11T03:52:02.965Z,4.00
2019-03-11T03:53:02.926Z,3.50
2019-03-11T03:54:02.919Z,3.70
2019-03-11T03:55:02.904Z,3.80
2019-03-11T03:56:02.913Z,3.40
2019-03-11T03:57:02.910Z,3.60
2019-03-11T03:58:02.883Z,3.60
2019-03-11T03:59:02.853Z,3.40
2019-03-11T04:00:02.905Z,3.30
2019-03-11T04:01:02.842Z,3.20
2019-03-11T04:02:02.871Z,3.00
2019-03-11T04:03:02.823Z,3.30
2019-03-11T04:04:02.805Z,3.50
2019-03-11T04:05:02.809Z,3.20
2019-03-11T04:06:02.796Z,3.20
2019-03-11T04:07:02.781Z,3.40
2019-03-11T04:08:02.793Z,3.20
2019-03-11T04:09:02.754Z,3.30
2019-03-11T04:10:02.737Z,3.50
2019-03-11T04:11:02.733Z,3.20
2019-03-11T04:12:02.728Z,3.10
2019-03-11T04:13:02.740Z,3.30
2019-03-11T04:14:02.710Z,3.50
2019-03-11T04:15:02.683Z,3.20
2019-03-11T04:16:02.679Z,3.40
2019-03-11T04:17:02.681Z,3.40
2019-03-11T04:18:02.660Z,3.20
2019-03-11T04:19:02.652Z,3.50
2019-03-11T04:20:02.631Z,3.20
2019-03-11T04:21:02.613Z,3.80
2019-03-11T04:22:02.612Z,3.60
2019-03-11T04:23:02.652Z,3.80
2019-03-11T04:24:02.584Z,3.90
2019-03-11T04:25:02.574Z,3.60
2019-03-11T04:26:02.554Z,4.20
2019-03-11T04:27:02.544Z,4.10
2019-03-11T04:28:02.574Z,4.40
2019-03-11T04:29:02.528Z,4.00
2019-03-11T04:30:02.517Z,4.30
2019-03-11T04:31:02.516Z,4.50
2019-03-11T04:32:02.543Z,4.10
2019-03-11T04:33:02.495Z,4.30
2019-03-11T04:34:02.477Z,4.80
2019-03-11T04:35:02.468Z,4.60
2019-03-11T04:36:02.466Z,5.00
2019-03-11T04:37:02.447Z,4.80
2019-03-11T04:38:02.476Z,4.70
2019-03-11T04:39:02.409Z,5.50
2019-03-11T04:40:02.409Z,5.30
2019-03-11T04:41:02.403Z,7.30
2019-03-11T04:42:02.387Z,6.30
2019-03-11T04:43:02.414Z,5.70
2019-03-11T04:44:02.392Z,6.20
2019-03-11T04:45:02.355Z,6.00
2019-03-11T04:46:02.336Z,6.00
2019-03-11T04:47:02.329Z,5.90
2019-03-11T04:48:02.319Z,6.00
2019-03-11T04:49:02.319Z,6.10
2019-03-11T04:50:02.293Z,6.40
2019-03-11T04:51:02.277Z,6.00
2019-03-11T04:52:02.288Z,6.10
2019-03-11T04:53:02.261Z,5.90
2019-03-11T04:54:02.264Z,6.30
2019-03-11T04:55:02.264Z,6.60
2019-03-11T04:56:02.232Z,6.30
2019-03-11T04:57:02.209Z,6.10
2019-03-11T04:58:02.212Z,6.10
2019-03-11T04:59:02.216Z,6.20
2019-03-11T05:00:02.210Z,6.60
2019-03-11T05:01:02.175Z,6.50
2019-03-11T05:02:02.156Z,5.90
2019-03-11T05:03:02.155Z,6.70
2019-03-11T05:04:02.175Z,6.50
2019-03-11T05:05:02.121Z,6.20
2019-03-11T05:06:02.118Z,6.00
2019-03-11T05:07:02.105Z,6.30
2019-03-11T05:08:02.095Z,6.20
2019-03-11T05:09:02.096Z,6.20
2019-03-11T05:10:02.090Z,5.80
2019-03-11T05:11:02.073Z,5.50
2019-03-11T05:12:02.057Z,5.60
2019-03-11T05:13:02.046Z,5.90
2019-03-11T05:14:02.046Z,5.70
2019-03-11T05:15:02.016Z,6.10
2019-03-11T05:16:02.023Z,5.60
2019-03-11T05:17:02.002Z,5.50
2019-03-11T05:18:01.998Z,5.20
2019-03-11T05:19:01.996Z,6.00
2019-03-11T05:20:01.961Z,5.50
2019-03-11T05:21:01.958Z,5.50
2019-03-11T05:22:01.945Z,5.50
2019-03-11T05:23:01.929Z,5.70
2019-03-11T05:24:01.934Z,5.40
2019-03-11T05:25:01.940Z,5.60
2019-03-11T05:26:01.898Z,5.20
2019-03-11T05:27:01.889Z,5.30
2019-03-11T05:28:01.877Z,5.40
2019-03-11T05:29:01.863Z,5.50
2019-03-11T05:30:01.874Z,5.20
2019-03-11T05:31:01.849Z,5.60
2019-03-11T05:32:01.837Z,5.70
2019-03-11T05:33:01.849Z,5.40
2019-03-11T05:34:01.821Z,5.10
2019-03-11T05:35:01.869Z,5.10
2019-03-11T05:36:01.875Z,5.50
2019-03-11T05:37:01.779Z,5.10
2019-03-11T05:38:01.774Z,5.00
2019-03-11T05:39:01.759Z,5.10
2019-03-11T05:40:01.762Z,5.10
2019-03-11T05:41:01.738Z,5.10
2019-03-11T05:42:01.720Z,4.90
2019-03-11T05:43:01.721Z,4.90
2019-03-11T05:44:01.704Z,4.50
2019-03-11T05:45:01.722Z,4.50
2019-03-11T05:46:01.675Z,4.20
2019-03-11T05:47:01.675Z,4.60
2019-03-11T05:48:01.670Z,4.60
2019-03-11T05:49:01.645Z,4.20
2019-03-11T05:50:01.642Z,4.20
2019-03-11T05:51:01.632Z,4.10
2019-03-11T05:52:01.619Z,4.20
2019-03-11T05:53:01.604Z,4.20
2019-03-11T05:54:01.622Z,4.10
2019-03-11T05:55:01.586Z,4.20
2019-03-11T05:56:01.598Z,4.40
2019-03-11T05:57:01.549Z,3.90
2019-03-11T05:58:01.544Z,3.80
2019-03-11T05:59:01.545Z,4.20
2019-03-11T06:00:01.524Z,4.10
2019-03-11T06:01:01.555Z,4.30
2019-03-11T06:02:01.519Z,4.50
2019-03-11T06:03:01.493Z,4.40
2019-03-11T06:04:01.480Z,3.80
2019-03-11T06:05:01.476Z,3.80
2019-03-11T06:06:01.486Z,4.00
2019-03-11T06:07:01.450Z,3.50
2019-03-11T06:08:01.438Z,4.10
2019-03-11T06:09:01.446Z,3.70
2019-03-11T06:10:01.425Z,4.30
2019-03-11T06:11:01.428Z,4.30
2019-03-11T06:12:01.388Z,4.20
2019-03-11T06:13:01.386Z,4.10
2019-03-11T06:14:01.376Z,4.70
2019-03-11T06:15:01.365Z,4.20
2019-03-11T06:16:01.350Z,4.30
2019-03-11T06:17:01.367Z,4.10
2019-03-11T06:18:01.332Z,4.50
2019-03-11T06:19:01.312Z,4.30
2019-03-11T06:20:01.341Z,4.80
2019-03-11T06:21:01.286Z,4.60
2019-03-11T06:22:01.294Z,5.00
2019-03-11T06:23:01.428Z,4.80
2019-03-11T06:24:01.255Z,4.90
2019-03-11T06:25:01.243Z,4.50
2019-03-11T06:26:01.244Z,6.90
2019-03-11T06:27:01.269Z,6.90
2019-03-11T06:28:01.241Z,6.20
2019-03-11T06:29:01.228Z,5.90
2019-03-11T06:30:01.186Z,5.70
2019-03-11T06:31:01.193Z,5.70
2019-03-11T06:32:01.186Z,5.50
2019-03-11T06:33:01.167Z,5.50
2019-03-11T06:34:01.142Z,5.70
2019-03-11T06:35:01.139Z,5.50
2019-03-11T06:36:01.136Z,6.00
2019-03-11T06:37:01.134Z,6.20
2019-03-11T06:38:01.106Z,5.80
2019-03-11T06:39:05.760Z,6.00
2019-03-11T06:40:02.074Z,5.90
2019-03-11T06:41:01.063Z,5.80
2019-03-11T06:42:01.078Z,6.40
2019-03-11T06:43:01.041Z,6.10
2019-03-11T06:44:01.081Z,6.30
2019-03-11T06:45:01.030Z,5.90
2019-03-11T06:46:01.020Z,5.90
2019-03-11T06:47:01.072Z,5.80
2019-03-11T06:48:01.002Z,6.50
2019-03-11T06:49:00.979Z,5.70
2019-03-11T06:50:00.986Z,5.70
2019-03-11T06:51:00.985Z,5.60
2019-03-11T06:52:03.421Z,6.30
2019-03-11T06:53:00.944Z,5.60
2019-03-11T06:54:00.920Z,6.30
2019-03-11T06:55:00.921Z,6.10
2019-03-11T06:56:00.912Z,5.80
2019-03-11T06:57:00.901Z,6.00
2019-03-11T06:58:00.907Z,6.20
2019-03-11T06:59:00.879Z,5.60
2019-03-11T07:00:00.853Z,5.90
2019-03-11T07:01:00.869Z,5.70
2019-03-11T07:02:00.837Z,6.20
2019-03-11T07:03:00.853Z,5.50
2019-03-11T07:04:00.822Z,5.90
2019-03-11T07:05:02.446Z,5.20
2019-03-11T07:06:00.798Z,5.60
2019-03-11T07:07:00.801Z,5.90
2019-03-11T07:08:00.796Z,5.60
2019-03-11T07:09:00.754Z,5.20
2019-03-11T07:10:00.748Z,5.80
2019-03-11T07:11:00.736Z,5.40
2019-03-11T07:12:00.733Z,5.50
2019-03-11T07:13:00.735Z,5.20
2019-03-11T07:14:00.701Z,5.40
2019-03-11T07:15:00.699Z,5.30
2019-03-11T07:16:00.687Z,5.90
2019-03-11T07:17:00.668Z,5.40
2019-03-11T07:18:00.670Z,5.70
2019-03-11T07:19:00.641Z,6.20
2019-03-11T07:20:00.653Z,6.10
2019-03-11T07:21:00.626Z,5.90
2019-03-11T07:22:00.607Z,6.00
2019-03-11T07:23:00.619Z,5.80
2019-03-11T07:24:00.589Z,5.20
2019-03-11T07:25:00.582Z,6.00
2019-03-11T07:26:00.562Z,5.70
2019-03-11T07:27:00.564Z,6.20
2019-03-11T07:28:00.625Z,6.60
2019-03-11T07:29:00.564Z,5.30
2019-03-11T07:30:00.522Z,5.70
2019-03-11T07:31:00.514Z,5.70
2019-03-11T07:32:00.505Z,6.20
2019-03-11T07:33:00.528Z,6.00
2019-03-11T07:34:00.473Z,6.00
2019-03-11T07:35:08.292Z,5.50
2019-03-11T07:36:01.461Z,5.90
2019-03-11T07:37:00.486Z,5.80
2019-03-11T07:38:00.440Z,5.90
2019-03-11T07:39:00.491Z,5.40
2019-03-11T07:40:00.418Z,5.40
2019-03-11T07:41:00.405Z,5.40
2019-03-11T07:42:00.389Z,5.60
2019-03-11T07:43:00.399Z,5.20
2019-03-11T07:44:00.413Z,5.30
2019-03-11T07:45:00.358Z,5.00
2019-03-11T07:46:00.340Z,5.60
2019-03-11T07:47:00.349Z,5.30
2019-03-11T07:48:00.335Z,5.40
2019-03-11T07:49:00.334Z,5.60
2019-03-11T07:50:00.387Z,5.50
2019-03-11T07:51:00.304Z,6.50
2019-03-11T07:52:02.577Z,6.30
2019-03-11T07:53:00.281Z,6.10
2019-03-11T07:54:00.272Z,6.40
2019-03-11T07:55:00.349Z,6.00
2019-03-11T07:56:00.246Z,5.90
2019-03-11T07:57:00.227Z,6.20
2019-03-11T07:58:00.206Z,6.20
2019-03-11T07:59:00.218Z,6.20
2019-03-11T08:00:00.371Z,5.50
2019-03-11T08:01:00.180Z,5.20
2019-03-11T08:02:00.183Z,5.30
2019-03-11T08:03:00.156Z,5.50
2019-03-11T08:04:00.153Z,5.60
2019-03-11T08:05:00.376Z,6.70
2019-03-11T08:06:00.118Z,6.40
2019-03-11T08:07:00.118Z,6.00
2019-03-11T08:08:00.170Z,6.40
2019-03-11T08:09:00.113Z,5.90
2019-03-11T08:10:00.255Z,6.10
2019-03-11T08:11:00.090Z,6.10
2019-03-11T08:12:00.119Z,5.20
2019-03-11T08:13:00.045Z,5.30
2019-03-11T08:14:00.081Z,5.40
2019-03-11T08:15:00.038Z,5.50
2019-03-11T08:16:00.023Z,5.20
2019-03-11T08:17:00.003Z,5.10
2019-03-11T08:17:59.995Z,5.40
2019-03-11T08:19:00.045Z,5.00
2019-03-11T08:19:59.973Z,5.10
2019-03-11T08:20:59.965Z,5.20
2019-03-11T08:21:59.943Z,4.90
2019-03-11T08:22:59.929Z,5.00
2019-03-11T08:23:59.937Z,4.90
2019-03-11T08:24:59.958Z,5.00
2019-03-11T08:25:59.908Z,5.50
2019-03-11T08:26:59.885Z,5.40
2019-03-11T08:27:59.887Z,4.90
2019-03-11T08:28:59.871Z,5.30
2019-03-11T08:29:59.896Z,5.30
2019-03-11T08:30:59.843Z,5.20
2019-03-11T08:31:59.840Z,5.00
2019-03-11T08:32:59.815Z,5.20
2019-03-11T08:33:59.811Z,4.40
2019-03-11T08:34:59.828Z,4.80
2019-03-11T08:35:59.795Z,4.40
2019-03-11T08:36:59.783Z,4.60
2019-03-11T08:38:04.802Z,4.50
2019-03-11T08:39:00.796Z,4.40
2019-03-11T08:39:59.760Z,4.50
2019-03-11T08:40:59.786Z,4.50
2019-03-11T08:41:59.764Z,4.40
2019-03-11T08:42:59.727Z,4.00
2019-03-11T08:43:59.696Z,4.40
2019-03-11T08:44:59.720Z,4.00
2019-03-11T08:45:59.679Z,3.90
2019-03-11T08:46:59.685Z,3.90
2019-03-11T08:47:59.750Z,4.10
2019-03-11T08:48:59.644Z,4.80
2019-03-11T08:49:59.653Z,5.70
2019-03-11T08:50:59.625Z,6.30
2019-03-11T08:51:59.611Z,5.30
2019-03-11T08:52:59.612Z,5.90
2019-03-11T08:53:59.578Z,6.40
2019-03-11T08:54:59.662Z,6.10
2019-03-11T08:55:59.564Z,4.00
2019-03-11T08:56:59.571Z,4.40
2019-03-11T08:57:59.552Z,4.80
2019-03-11T08:58:59.543Z,4.70
2019-03-11T08:59:59.540Z,5.30
2019-03-11T09:00:59.520Z,4.20
2019-03-11T09:01:59.515Z,5.50
2019-03-11T09:02:59.502Z,6.30
2019-03-11T09:03:59.496Z,5.00
2019-03-11T09:04:59.511Z,4.60
2019-03-11T09:05:59.459Z,4.40
2019-03-11T09:06:59.457Z,4.50
2019-03-11T09:07:59.440Z,4.60
2019-03-11T09:08:59.427Z,4.40
2019-03-11T09:09:59.408Z,4.30
2019-03-11T09:10:59.424Z,5.10
2019-03-11T09:11:59.392Z,4.60
2019-03-11T09:12:59.387Z,4.30
2019-03-11T09:13:59.368Z,4.00
2019-03-11T09:14:59.371Z,4.50
2019-03-11T09:15:59.378Z,4.20
2019-03-11T09:16:59.371Z,4.50
2019-03-11T09:17:59.316Z,4.70
2019-03-11T09:18:59.309Z,4.60
2019-03-11T09:19:59.294Z,4.10
2019-03-11T09:20:59.309Z,4.10
2019-03-11T09:21:59.270Z,4.40
2019-03-11T09:22:59.434Z,4.20
2019-03-11T09:23:59.255Z,4.40
2019-03-11T09:24:59.242Z,4.10
2019-03-11T09:25:59.248Z,3.90
2019-03-11T09:26:59.221Z,4.00
2019-03-11T09:27:59.221Z,4.10
2019-03-11T09:28:59.271Z,3.50
2019-03-11T09:29:59.189Z,3.80
2019-03-11T09:30:59.200Z,3.60
2019-03-11T09:31:59.172Z,3.90
2019-03-11T09:32:59.170Z,4.00
2019-03-11T09:33:59.147Z,4.00
2019-03-11T09:34:59.169Z,3.80
2019-03-11T09:35:59.147Z,3.90
2019-03-11T09:36:59.112Z,3.80
2019-03-11T09:37:59.123Z,3.30
2019-03-11T09:38:59.097Z,3.50
2019-03-11T09:40:00.500Z,4.10
2019-03-11T09:40:59.064Z,4.20
2019-03-11T09:41:59.075Z,3.30
2019-03-11T09:42:59.056Z,3.70
2019-03-11T09:43:59.036Z,3.60
2019-03-11T09:44:59.030Z,3.70
2019-03-11T09:45:59.005Z,3.70
2019-03-11T09:46:59.008Z,3.40
2019-03-11T09:47:58.995Z,3.40
2019-03-11T09:48:58.993Z,3.20
2019-03-11T09:49:58.965Z,3.50
2019-03-11T09:50:59.255Z,3.70
2019-03-11T09:51:58.984Z,3.60
2019-03-11T09:52:58.952Z,3.50
2019-03-11T09:53:58.924Z,3.60
2019-03-11T09:54:58.915Z,3.40
2019-03-11T09:55:58.899Z,4.00
2019-03-11T09:56:58.907Z,4.10
2019-03-11T09:57:58.901Z,3.80
2019-03-11T09:58:58.874Z,3.60
2019-03-11T09:59:58.865Z,3.70
2019-03-11T10:00:58.845Z,3.50
2019-03-11T10:01:58.848Z,3.70
2019-03-11T10:02:58.831Z,3.10
2019-03-11T10:03:58.809Z,3.30
2019-03-11T10:04:58.805Z,3.40
2019-03-11T10:05:58.801Z,4.00
2019-03-11T10:06:58.781Z,3.40
2019-03-11T10:07:58.828Z,3.50
2019-03-11T10:08:58.758Z,3.20
2019-03-11T10:09:58.749Z,3.30
2019-03-11T10:10:58.746Z,3.20
2019-03-11T10:11:58.762Z,3.10
2019-03-11T10:12:58.717Z,3.30
2019-03-11T10:13:58.696Z,3.20
2019-03-11T10:14:58.702Z,3.00
2019-03-11T10:15:58.679Z,3.30
2019-03-11T10:16:58.685Z,3.30
2019-03-11T10:17:58.654Z,3.40
2019-03-11T10:18:58.639Z,3.30
2019-03-11T10:19:58.640Z,3.50
2019-03-11T10:20:58.618Z,3.30
2019-03-11T10:21:58.644Z,2.90
2019-03-11T10:22:58.666Z,3.50
2019-03-11T10:23:59.427Z,3.60
2019-03-11T10:24:58.573Z,3.60
2019-03-11T10:25:58.576Z,3.70
2019-03-11T10:26:58.595Z,3.90
2019-03-11T10:27:58.548Z,3.20
2019-03-11T10:28:58.535Z,3.50
2019-03-11T10:29:58.540Z,3.50
2019-03-11T10:30:58.518Z,3.50
2019-03-11T10:31:58.524Z,3.70
2019-03-11T10:32:58.487Z,3.60
2019-03-11T10:33:58.476Z,3.10
2019-03-11T10:34:58.476Z,3.60
2019-03-11T10:35:58.456Z,4.00
2019-03-11T10:36:58.491Z,3.60
2019-03-11T10:37:58.446Z,3.90
2019-03-11T10:38:58.428Z,3.90
2019-03-11T10:39:58.417Z,3.90
2019-03-11T10:40:58.405Z,3.30
2019-03-11T10:41:58.420Z,3.50
2019-03-11T10:42:58.383Z,3.60
2019-03-11T10:43:58.374Z,3.90
2019-03-11T10:44:58.365Z,3.80
2019-03-11T10:45:58.344Z,3.80
2019-03-11T10:46:58.344Z,3.40
2019-03-11T10:47:58.347Z,3.60
2019-03-11T10:48:58.316Z,3.50
2019-03-11T10:49:58.297Z,3.70
2019-03-11T10:50:58.394Z,3.40
2019-03-11T10:51:58.277Z,3.10
2019-03-11T10:52:58.302Z,3.50
2019-03-11T10:53:58.264Z,3.30
2019-03-11T10:54:58.265Z,3.30
2019-03-11T10:56:00.008Z,3.30
2019-03-11T10:56:58.214Z,3.50
2019-03-11T10:57:58.225Z,3.00
2019-03-11T10:58:58.214Z,4.00
2019-03-11T10:59:58.192Z,4.00
2019-03-11T11:00:58.191Z,3.70
2019-03-11T11:01:58.173Z,3.60
2019-03-11T11:02:58.178Z,3.30
2019-03-11T11:03:58.184Z,3.80
2019-03-11T11:04:58.141Z,4.00
2019-03-11T11:05:58.133Z,4.30
2019-03-11T11:06:58.106Z,4.00
2019-03-11T11:07:58.128Z,4.10
2019-03-11T11:08:58.091Z,4.20
2019-03-11T11:09:58.083Z,3.70
2019-03-11T11:10:58.063Z,3.90
2019-03-11T11:11:58.065Z,3.70
2019-03-11T11:12:58.067Z,3.50
2019-03-11T11:13:58.029Z,3.50
2019-03-11T11:14:58.027Z,3.40
2019-03-11T11:15:58.006Z,3.50
2019-03-11T11:16:58.003Z,3.30
2019-03-11T11:17:58.012Z,3.90
2019-03-11T11:18:57.988Z,4.10
2019-03-11T11:20:03.314Z,4.10
2019-03-11T11:20:58.963Z,3.90
2019-03-11T11:21:57.942Z,4.30
2019-03-11T11:22:57.948Z,3.60
2019-03-11T11:23:57.942Z,4.10
2019-03-11T11:24:57.913Z,4.00
2019-03-11T11:25:57.897Z,3.80
2019-03-11T11:26:57.899Z,4.20
2019-03-11T11:27:57.911Z,3.70
2019-03-11T11:28:57.873Z,3.90
2019-03-11T11:29:57.861Z,4.20
2019-03-11T11:30:57.862Z,4.30
2019-03-11T11:31:57.847Z,3.90
2019-03-11T11:32:57.841Z,4.40
2019-03-11T11:33:57.818Z,3.80
2019-03-11T11:34:57.794Z,4.10
2019-03-11T11:35:57.800Z,4.40
2019-03-11T11:36:57.776Z,4.60
2019-03-11T11:37:57.804Z,4.60
2019-03-11T11:38:57.761Z,4.00
2019-03-11T11:39:57.756Z,3.80
2019-03-11T11:40:57.752Z,4.10
2019-03-11T11:41:57.761Z,4.00
2019-03-11T11:42:57.731Z,4.20
2019-03-11T11:43:57.708Z,3.90
2019-03-11T11:44:57.697Z,3.60
2019-03-11T11:45:57.679Z,3.60
2019-03-11T11:46:57.668Z,3.80
2019-03-11T11:47:57.667Z,3.80
2019-03-11T11:48:57.639Z,3.50
2019-03-11T11:49:57.638Z,4.00
2019-03-11T11:50:57.627Z,4.00
2019-03-11T11:51:57.616Z,3.30
2019-03-11T11:52:57.608Z,4.10
2019-03-11T11:53:57.598Z,3.90
2019-03-11T11:54:57.575Z,4.40
2019-03-11T11:55:58.216Z,4.40
2019-03-11T11:56:57.566Z,4.50
2019-03-11T11:57:57.568Z,4.30
2019-03-11T11:58:57.540Z,4.00
2019-03-11T11:59:57.523Z,3.60
2019-03-11T12:00:57.522Z,3.60
2019-03-11T12:02:03.790Z,3.50
2019-03-11T12:02:58.522Z,3.60
2019-03-11T12:03:57.472Z,4.20
2019-03-11T12:04:57.470Z,4.20
2019-03-11T12:05:57.462Z,4.20
2019-03-11T12:06:57.444Z,4.10
2019-03-11T12:07:57.453Z,4.10
2019-03-11T12:08:57.414Z,4.60
2019-03-11T12:09:57.415Z,5.10
2019-03-11T12:10:57.399Z,4.50
2019-03-11T12:11:57.406Z,4.60
2019-03-11T12:12:57.417Z,5.30
2019-03-11T12:13:57.374Z,4.80
2019-03-11T12:14:57.355Z,5.20
2019-03-11T12:15:57.347Z,5.00
2019-03-11T12:16:57.352Z,5.60
2019-03-11T12:17:57.350Z,4.70
2019-03-11T12:18:57.308Z,4.10
2019-03-11T12:19:57.301Z,4.10
2019-03-11T12:20:57.291Z,4.00
2019-03-11T12:21:57.291Z,4.10
2019-03-11T12:22:57.287Z,3.90
2019-03-11T12:23:57.257Z,4.20
2019-03-11T12:24:57.253Z,4.30
2019-03-11T12:25:57.231Z,3.50
2019-03-11T12:26:57.223Z,3.60
2019-03-11T12:27:58.341Z,3.70
2019-03-11T12:28:57.199Z,4.10
2019-03-11T12:29:57.194Z,3.80
2019-03-11T12:30:57.214Z,3.80
2019-03-11T12:31:57.163Z,3.60
2019-03-11T12:32:57.236Z,3.30
2019-03-11T12:33:57.142Z,3.40
2019-03-11T12:34:57.182Z,3.10
2019-03-11T12:35:57.153Z,3.70
2019-03-11T12:36:57.127Z,3.70
2019-03-11T12:37:57.134Z,3.50
2019-03-11T12:38:57.088Z,3.50
2019-03-11T12:39:57.085Z,3.60
2019-03-11T12:40:57.073Z,3.80
2019-03-11T12:41:57.068Z,3.80
2019-03-11T12:42:57.083Z,3.20
2019-03-11T12:43:57.055Z,3.60
2019-03-11T12:44:57.027Z,3.30
2019-03-11T12:45:57.007Z,3.40
2019-03-11T12:46:57.018Z,3.40
2019-03-11T12:47:56.994Z,3.90
2019-03-11T12:48:57.007Z,3.70
2019-03-11T12:49:56.974Z,3.50
2019-03-11T12:50:56.952Z,3.20
2019-03-11T12:51:56.953Z,3.30
2019-03-11T12:52:56.979Z,3.40
2019-03-11T12:53:56.965Z,3.30
2019-03-11T12:54:56.924Z,3.50
2019-03-11T12:55:56.906Z,3.80
2019-03-11T12:56:56.894Z,3.40
2019-03-11T12:57:56.878Z,3.40
2019-03-11T12:58:56.864Z,3.50
2019-03-11T12:59:56.886Z,3.30
2019-03-11T13:00:56.855Z,3.20
2019-03-11T13:01:56.827Z,3.50
2019-03-11T13:02:56.836Z,3.50
2019-03-11T13:03:56.807Z,2.90
2019-03-11T13:04:56.813Z,3.00
2019-03-11T13:05:56.786Z,3.30
2019-03-11T13:06:56.800Z,5.50
2019-03-11T13:07:56.760Z,3.50
2019-03-11T13:08:56.762Z,2.90
2019-03-11T13:09:56.766Z,3.40
2019-03-11T13:10:56.730Z,3.30
2019-03-11T13:11:56.718Z,3.70
2019-03-11T13:12:56.712Z,3.30
2019-03-11T13:13:56.705Z,3.30
2019-03-11T13:14:56.708Z,3.30
2019-03-11T13:15:56.677Z,3.30
2019-03-11T13:16:56.663Z,2.90
2019-03-11T13:17:56.659Z,2.70